sensor_id;sensor_type;location;lat;lon;timestamp;P1;durP1;ratioP1;P2;durP2;ratioP2
17965;SDS011;9108;53.204;10.424;2023-05-07T00:03:32;16.23;;;9.15;;
17965;SDS011;9108;53.204;10.424;2023-05-07T00:06:00;15.07;;;8.90;;
17965;SDS011;9108;53.204;10.424;2023-05-07T00:08:29;16.13;;;9.00;;
17965;SDS011;9108;53.204;10.424;2023-05-07T00:10:58;15.43;;;8.48;;
17965;SDS011;9108;53.204;10.424;2023-05-07T00:13:28;15.20;;;8.80;;
17965;SDS011;9108;53.204;10.424;2023-05-07T00:16:03;15.57;;;8.98;;
17965;SDS011;9108;53.204;10.424;2023-05-07T00:18:30;15.27;;;8.93;;
17965;SDS011;9108;53.204;10.424;2023-05-07T00:20:59;14.55;;;8.93;;
17965;SDS011;9108;53.204;10.424;2023-05-07T00:23:29;14.85;;;9.07;;
17965;SDS011;9108;53.204;10.424;2023-05-07T00:25:56;17.13;;;8.93;;
17965;SDS011;9108;53.204;10.424;2023-05-07T00:28:24;14.07;;;8.93;;
17965;SDS011;9108;53.204;10.424;2023-05-07T00:30:51;14.63;;;9.18;;
17965;SDS011;9108;53.204;10.424;2023-05-07T00:33:19;15.05;;;8.70;;
17965;SDS011;9108;53.204;10.424;2023-05-07T00:35:47;15.32;;;8.85;;
17965;SDS011;9108;53.204;10.424;2023-05-07T00:38:22;14.18;;;8.70;;
17965;SDS011;9108;53.204;10.424;2023-05-07T00:40:49;14.32;;;8.38;;
17965;SDS011;9108;53.204;10.424;2023-05-07T00:43:16;14.80;;;8.82;;
17965;SDS011;9108;53.204;10.424;2023-05-07T00:45:44;14.00;;;8.70;;
17965;SDS011;9108;53.204;10.424;2023-05-07T00:48:11;14.32;;;8.48;;
17965;SDS011;9108;53.204;10.424;2023-05-07T00:50:39;15.02;;;9.13;;
17965;SDS011;9108;53.204;10.424;2023-05-07T00:53:06;15.13;;;9.40;;
17965;SDS011;9108;53.204;10.424;2023-05-07T00:55:35;13.60;;;8.70;;
17965;SDS011;9108;53.204;10.424;2023-05-07T00:58:02;15.70;;;9.55;;
17965;SDS011;9108;53.204;10.424;2023-05-07T01:00:30;14.32;;;9.07;;
17965;SDS011;9108;53.204;10.424;2023-05-07T01:02:57;14.18;;;8.90;;
17965;SDS011;9108;53.204;10.424;2023-05-07T01:05:25;14.25;;;8.88;;
17965;SDS011;9108;53.204;10.424;2023-05-07T01:07:54;13.88;;;8.88;;
17965;SDS011;9108;53.204;10.424;2023-05-07T01:10:24;14.32;;;8.80;;
17965;SDS011;9108;53.204;10.424;2023-05-07T01:13:01;14.73;;;8.95;;
17965;SDS011;9108;53.204;10.424;2023-05-07T01:15:31;14.70;;;9.13;;
17965;SDS011;9108;53.204;10.424;2023-05-07T01:17:58;14.50;;;8.90;;
17965;SDS011;9108;53.204;10.424;2023-05-07T01:20:26;14.82;;;8.90;;
17965;SDS011;9108;53.204;10.424;2023-05-07T01:22:56;14.27;;;8.68;;
17965;SDS011;9108;53.204;10.424;2023-05-07T01:25:25;16.85;;;9.35;;
17965;SDS011;9108;53.204;10.424;2023-05-07T01:27:53;13.75;;;8.90;;
17965;SDS011;9108;53.204;10.424;2023-05-07T01:30:21;14.90;;;8.98;;
17965;SDS011;9108;53.204;10.424;2023-05-07T01:32:49;13.02;;;8.25;;
17965;SDS011;9108;53.204;10.424;2023-05-07T01:35:19;13.82;;;8.25;;
17965;SDS011;9108;53.204;10.424;2023-05-07T01:37:47;14.65;;;8.30;;
17965;SDS011;9108;53.204;10.424;2023-05-07T01:40:19;13.90;;;8.95;;
17965;SDS011;9108;53.204;10.424;2023-05-07T01:42:47;13.50;;;8.70;;
17965;SDS011;9108;53.204;10.424;2023-05-07T01:45:15;15.52;;;9.13;;
17965;SDS011;9108;53.204;10.424;2023-05-07T01:47:44;14.23;;;9.15;;
17965;SDS011;9108;53.204;10.424;2023-05-07T01:50:18;14.87;;;9.10;;
17965;SDS011;9108;53.204;10.424;2023-05-07T01:52:46;14.50;;;9.40;;
17965;SDS011;9108;53.204;10.424;2023-05-07T01:58:01;16.10;;;9.65;;
17965;SDS011;9108;53.204;10.424;2023-05-07T02:00:29;15.10;;;9.35;;
17965;SDS011;9108;53.204;10.424;2023-05-07T02:03:01;15.48;;;9.70;;
17965;SDS011;9108;53.204;10.424;2023-05-07T02:18:28;18.40;;;10.98;;
17965;SDS011;9108;53.204;10.424;2023-05-07T02:20:55;17.90;;;10.77;;
17965;SDS011;9108;53.204;10.424;2023-05-07T02:23:23;17.73;;;10.63;;
17965;SDS011;9108;53.204;10.424;2023-05-07T02:25:51;19.10;;;11.25;;
17965;SDS011;9108;53.204;10.424;2023-05-07T02:28:18;18.60;;;11.35;;
17965;SDS011;9108;53.204;10.424;2023-05-07T02:30:46;17.55;;;10.50;;
17965;SDS011;9108;53.204;10.424;2023-05-07T02:33:15;17.92;;;10.68;;
17965;SDS011;9108;53.204;10.424;2023-05-07T02:35:47;17.27;;;10.50;;
17965;SDS011;9108;53.204;10.424;2023-05-07T02:38:17;17.48;;;10.60;;
17965;SDS011;9108;53.204;10.424;2023-05-07T02:40:50;16.85;;;10.27;;
17965;SDS011;9108;53.204;10.424;2023-05-07T02:43:31;17.27;;;10.27;;
17965;SDS011;9108;53.204;10.424;2023-05-07T02:46:03;18.15;;;10.48;;
17965;SDS011;9108;53.204;10.424;2023-05-07T02:48:39;18.02;;;10.88;;
17965;SDS011;9108;53.204;10.424;2023-05-07T02:51:08;18.35;;;10.38;;
17965;SDS011;9108;53.204;10.424;2023-05-07T02:53:36;17.07;;;9.97;;
17965;SDS011;9108;53.204;10.424;2023-05-07T02:56:03;16.67;;;9.63;;
17965;SDS011;9108;53.204;10.424;2023-05-07T02:58:31;17.05;;;9.57;;
17965;SDS011;9108;53.204;10.424;2023-05-07T03:00:59;16.90;;;9.88;;
17965;SDS011;9108;53.204;10.424;2023-05-07T03:03:32;16.60;;;9.90;;
17965;SDS011;9108;53.204;10.424;2023-05-07T03:06:01;18.17;;;10.15;;
17965;SDS011;9108;53.204;10.424;2023-05-07T03:08:30;15.90;;;9.77;;
17965;SDS011;9108;53.204;10.424;2023-05-07T03:10:57;17.92;;;10.40;;
17965;SDS011;9108;53.204;10.424;2023-05-07T03:13:32;17.40;;;10.00;;
17965;SDS011;9108;53.204;10.424;2023-05-07T03:15:59;18.52;;;10.68;;
17965;SDS011;9108;53.204;10.424;2023-05-07T03:18:29;19.33;;;10.90;;
17965;SDS011;9108;53.204;10.424;2023-05-07T03:20:56;19.77;;;11.00;;
17965;SDS011;9108;53.204;10.424;2023-05-07T03:23:25;18.30;;;11.05;;
17965;SDS011;9108;53.204;10.424;2023-05-07T03:25:54;17.95;;;10.90;;
17965;SDS011;9108;53.204;10.424;2023-05-07T03:28:22;19.35;;;11.30;;
17965;SDS011;9108;53.204;10.424;2023-05-07T03:30:49;19.90;;;11.13;;
17965;SDS011;9108;53.204;10.424;2023-05-07T03:33:16;18.92;;;10.90;;
17965;SDS011;9108;53.204;10.424;2023-05-07T03:35:43;18.92;;;10.95;;
17965;SDS011;9108;53.204;10.424;2023-05-07T03:38:10;18.02;;;10.40;;
17965;SDS011;9108;53.204;10.424;2023-05-07T03:40:38;18.23;;;10.75;;
17965;SDS011;9108;53.204;10.424;2023-05-07T03:43:09;18.15;;;10.68;;
17965;SDS011;9108;53.204;10.424;2023-05-07T03:45:39;19.38;;;10.98;;
17965;SDS011;9108;53.204;10.424;2023-05-07T03:48:10;19.40;;;10.50;;
17965;SDS011;9108;53.204;10.424;2023-05-07T03:50:37;19.93;;;11.47;;
17965;SDS011;9108;53.204;10.424;2023-05-07T03:53:04;17.90;;;10.50;;
17965;SDS011;9108;53.204;10.424;2023-05-07T03:55:37;18.35;;;10.85;;
17965;SDS011;9108;53.204;10.424;2023-05-07T03:58:09;19.00;;;10.83;;
17965;SDS011;9108;53.204;10.424;2023-05-07T04:00:36;18.17;;;10.45;;
17965;SDS011;9108;53.204;10.424;2023-05-07T04:03:05;18.75;;;11.00;;
17965;SDS011;9108;53.204;10.424;2023-05-07T04:05:32;16.92;;;10.23;;
17965;SDS011;9108;53.204;10.424;2023-05-07T04:08:01;17.25;;;10.52;;
17965;SDS011;9108;53.204;10.424;2023-05-07T04:10:29;18.15;;;10.38;;
17965;SDS011;9108;53.204;10.424;2023-05-07T04:12:56;17.80;;;10.40;;
17965;SDS011;9108;53.204;10.424;2023-05-07T04:15:24;17.80;;;10.50;;
17965;SDS011;9108;53.204;10.424;2023-05-07T04:17:52;21.05;;;11.05;;
17965;SDS011;9108;53.204;10.424;2023-05-07T04:20:19;20.33;;;11.00;;
17965;SDS011;9108;53.204;10.424;2023-05-07T04:22:46;20.67;;;11.38;;
17965;SDS011;9108;53.204;10.424;2023-05-07T04:25:13;19.75;;;10.93;;
17965;SDS011;9108;53.204;10.424;2023-05-07T04:27:44;20.58;;;11.00;;
17965;SDS011;9108;53.204;10.424;2023-05-07T04:30:11;20.42;;;11.50;;
17965;SDS011;9108;53.204;10.424;2023-05-07T04:32:40;20.33;;;11.05;;
17965;SDS011;9108;53.204;10.424;2023-05-07T04:35:09;19.63;;;10.73;;
17965;SDS011;9108;53.204;10.424;2023-05-07T04:37:37;20.05;;;10.70;;
17965;SDS011;9108;53.204;10.424;2023-05-07T04:40:05;18.73;;;10.70;;
17965;SDS011;9108;53.204;10.424;2023-05-07T04:42:35;18.73;;;10.43;;
17965;SDS011;9108;53.204;10.424;2023-05-07T04:45:02;20.08;;;10.68;;
17965;SDS011;9108;53.204;10.424;2023-05-07T04:47:33;19.05;;;10.60;;
17965;SDS011;9108;53.204;10.424;2023-05-07T04:50:05;19.13;;;10.32;;
17965;SDS011;9108;53.204;10.424;2023-05-07T04:52:33;18.67;;;10.27;;
17965;SDS011;9108;53.204;10.424;2023-05-07T04:55:00;17.02;;;9.95;;
17965;SDS011;9108;53.204;10.424;2023-05-07T04:57:28;21.33;;;11.00;;
17965;SDS011;9108;53.204;10.424;2023-05-07T04:59:57;18.60;;;10.43;;
17965;SDS011;9108;53.204;10.424;2023-05-07T05:02:27;18.77;;;10.27;;
17965;SDS011;9108;53.204;10.424;2023-05-07T05:04:56;16.67;;;9.75;;
17965;SDS011;9108;53.204;10.424;2023-05-07T05:07:25;21.92;;;10.65;;
17965;SDS011;9108;53.204;10.424;2023-05-07T05:09:52;17.67;;;9.68;;
17965;SDS011;9108;53.204;10.424;2023-05-07T05:12:19;16.92;;;9.23;;
17965;SDS011;9108;53.204;10.424;2023-05-07T05:14:49;19.15;;;10.07;;
17965;SDS011;9108;53.204;10.424;2023-05-07T05:17:16;18.13;;;9.82;;
17965;SDS011;9108;53.204;10.424;2023-05-07T05:19:43;18.27;;;10.20;;
17965;SDS011;9108;53.204;10.424;2023-05-07T05:22:10;17.63;;;9.90;;
17965;SDS011;9108;53.204;10.424;2023-05-07T05:24:42;18.70;;;10.10;;
17965;SDS011;9108;53.204;10.424;2023-05-07T05:27:09;18.02;;;9.98;;
17965;SDS011;9108;53.204;10.424;2023-05-07T05:29:37;17.55;;;9.80;;
17965;SDS011;9108;53.204;10.424;2023-05-07T05:32:04;19.17;;;9.70;;
17965;SDS011;9108;53.204;10.424;2023-05-07T05:34:38;16.58;;;9.60;;
17965;SDS011;9108;53.204;10.424;2023-05-07T05:37:05;16.83;;;9.63;;
17965;SDS011;9108;53.204;10.424;2023-05-07T05:39:33;17.27;;;9.57;;
17965;SDS011;9108;53.204;10.424;2023-05-07T05:42:02;15.90;;;9.02;;
17965;SDS011;9108;53.204;10.424;2023-05-07T05:44:29;17.92;;;9.70;;
17965;SDS011;9108;53.204;10.424;2023-05-07T05:46:57;17.38;;;10.05;;
17965;SDS011;9108;53.204;10.424;2023-05-07T05:49:25;17.45;;;9.95;;
17965;SDS011;9108;53.204;10.424;2023-05-07T05:51:52;16.98;;;9.50;;
17965;SDS011;9108;53.204;10.424;2023-05-07T05:54:19;17.05;;;9.18;;
17965;SDS011;9108;53.204;10.424;2023-05-07T05:56:49;17.13;;;8.98;;
17965;SDS011;9108;53.204;10.424;2023-05-07T05:59:18;17.20;;;9.10;;
17965;SDS011;9108;53.204;10.424;2023-05-07T06:01:45;16.45;;;9.00;;
17965;SDS011;9108;53.204;10.424;2023-05-07T06:04:13;16.95;;;9.00;;
17965;SDS011;9108;53.204;10.424;2023-05-07T06:06:43;16.45;;;8.65;;
17965;SDS011;9108;53.204;10.424;2023-05-07T06:09:10;15.00;;;8.50;;
17965;SDS011;9108;53.204;10.424;2023-05-07T06:11:37;15.68;;;8.60;;
17965;SDS011;9108;53.204;10.424;2023-05-07T06:14:06;14.50;;;7.97;;
17965;SDS011;9108;53.204;10.424;2023-05-07T06:16:34;15.63;;;8.30;;
17965;SDS011;9108;53.204;10.424;2023-05-07T06:19:03;16.33;;;8.93;;
17965;SDS011;9108;53.204;10.424;2023-05-07T06:21:30;15.95;;;8.52;;
17965;SDS011;9108;53.204;10.424;2023-05-07T06:23:57;16.40;;;8.57;;
17965;SDS011;9108;53.204;10.424;2023-05-07T06:26:24;15.10;;;7.82;;
17965;SDS011;9108;53.204;10.424;2023-05-07T06:28:51;15.02;;;8.25;;
17965;SDS011;9108;53.204;10.424;2023-05-07T06:31:19;15.70;;;8.30;;
17965;SDS011;9108;53.204;10.424;2023-05-07T06:33:48;17.02;;;8.30;;
17965;SDS011;9108;53.204;10.424;2023-05-07T06:36:15;16.30;;;8.48;;
17965;SDS011;9108;53.204;10.424;2023-05-07T06:38:42;16.63;;;8.25;;
17965;SDS011;9108;53.204;10.424;2023-05-07T06:41:09;14.18;;;7.90;;
17965;SDS011;9108;53.204;10.424;2023-05-07T06:43:36;14.40;;;8.20;;
17965;SDS011;9108;53.204;10.424;2023-05-07T06:46:04;14.65;;;8.02;;
17965;SDS011;9108;53.204;10.424;2023-05-07T06:48:31;14.07;;;8.05;;
17965;SDS011;9108;53.204;10.424;2023-05-07T06:50:59;14.15;;;8.05;;
17965;SDS011;9108;53.204;10.424;2023-05-07T06:53:26;11.90;;;7.07;;
17965;SDS011;9108;53.204;10.424;2023-05-07T06:55:58;15.52;;;7.57;;
17965;SDS011;9108;53.204;10.424;2023-05-07T06:58:26;12.85;;;7.47;;
17965;SDS011;9108;53.204;10.424;2023-05-07T07:00:53;14.82;;;7.82;;
17965;SDS011;9108;53.204;10.424;2023-05-07T07:03:22;14.20;;;7.97;;
17965;SDS011;9108;53.204;10.424;2023-05-07T07:05:51;14.55;;;7.70;;
17965;SDS011;9108;53.204;10.424;2023-05-07T07:08:19;16.08;;;7.88;;
17965;SDS011;9108;53.204;10.424;2023-05-07T07:10:47;15.02;;;7.78;;
17965;SDS011;9108;53.204;10.424;2023-05-07T07:13:16;13.45;;;7.45;;
17965;SDS011;9108;53.204;10.424;2023-05-07T07:15:47;15.63;;;8.63;;
17965;SDS011;9108;53.204;10.424;2023-05-07T07:18:14;14.05;;;7.95;;
17965;SDS011;9108;53.204;10.424;2023-05-07T07:20:41;14.50;;;7.80;;
17965;SDS011;9108;53.204;10.424;2023-05-07T07:23:09;14.30;;;7.68;;
17965;SDS011;9108;53.204;10.424;2023-05-07T07:25:38;12.77;;;7.20;;
17965;SDS011;9108;53.204;10.424;2023-05-07T07:28:05;13.97;;;7.80;;
17965;SDS011;9108;53.204;10.424;2023-05-07T07:30:32;13.60;;;7.70;;
17965;SDS011;9108;53.204;10.424;2023-05-07T07:32:59;13.70;;;7.60;;
17965;SDS011;9108;53.204;10.424;2023-05-07T07:35:28;13.30;;;7.37;;
17965;SDS011;9108;53.204;10.424;2023-05-07T07:37:55;13.43;;;7.17;;
17965;SDS011;9108;53.204;10.424;2023-05-07T07:40:22;12.50;;;7.10;;
17965;SDS011;9108;53.204;10.424;2023-05-07T07:42:51;12.03;;;7.20;;
17965;SDS011;9108;53.204;10.424;2023-05-07T07:45:18;12.18;;;7.07;;
17965;SDS011;9108;53.204;10.424;2023-05-07T07:47:45;12.50;;;7.22;;
17965;SDS011;9108;53.204;10.424;2023-05-07T07:50:12;12.20;;;6.93;;
17965;SDS011;9108;53.204;10.424;2023-05-07T07:52:40;10.32;;;6.50;;
17965;SDS011;9108;53.204;10.424;2023-05-07T07:55:07;10.40;;;6.25;;
17965;SDS011;9108;53.204;10.424;2023-05-07T07:57:35;11.00;;;6.30;;
17965;SDS011;9108;53.204;10.424;2023-05-07T08:00:13;10.43;;;6.13;;
17965;SDS011;9108;53.204;10.424;2023-05-07T08:02:40;11.05;;;6.70;;
17965;SDS011;9108;53.204;10.424;2023-05-07T08:05:07;10.32;;;6.40;;
17965;SDS011;9108;53.204;10.424;2023-05-07T08:07:35;9.88;;;6.00;;
17965;SDS011;9108;53.204;10.424;2023-05-07T08:10:02;12.35;;;7.00;;
17965;SDS011;9108;53.204;10.424;2023-05-07T08:12:29;13.15;;;6.90;;
17965;SDS011;9108;53.204;10.424;2023-05-07T08:14:56;10.95;;;7.03;;
17965;SDS011;9108;53.204;10.424;2023-05-07T08:17:25;10.48;;;6.93;;
17965;SDS011;9108;53.204;10.424;2023-05-07T08:19:52;11.20;;;6.95;;
17965;SDS011;9108;53.204;10.424;2023-05-07T08:22:19;12.60;;;7.50;;
17965;SDS011;9108;53.204;10.424;2023-05-07T08:24:47;11.32;;;6.90;;
17965;SDS011;9108;53.204;10.424;2023-05-07T08:27:15;12.70;;;6.72;;
17965;SDS011;9108;53.204;10.424;2023-05-07T08:29:42;11.37;;;6.70;;
17965;SDS011;9108;53.204;10.424;2023-05-07T08:32:12;11.63;;;6.90;;
17965;SDS011;9108;53.204;10.424;2023-05-07T08:34:41;11.40;;;6.75;;
17965;SDS011;9108;53.204;10.424;2023-05-07T08:37:08;11.95;;;6.57;;
17965;SDS011;9108;53.204;10.424;2023-05-07T08:39:35;14.43;;;6.85;;
17965;SDS011;9108;53.204;10.424;2023-05-07T08:42:03;12.18;;;6.97;;
17965;SDS011;9108;53.204;10.424;2023-05-07T08:44:32;12.00;;;7.20;;
17965;SDS011;9108;53.204;10.424;2023-05-07T08:47:00;13.15;;;7.20;;
17965;SDS011;9108;53.204;10.424;2023-05-07T08:49:28;13.93;;;7.75;;
17965;SDS011;9108;53.204;10.424;2023-05-07T08:51:57;12.77;;;6.88;;
17965;SDS011;9108;53.204;10.424;2023-05-07T08:54:24;12.23;;;7.18;;
17965;SDS011;9108;53.204;10.424;2023-05-07T08:56:51;12.23;;;7.70;;
17965;SDS011;9108;53.204;10.424;2023-05-07T08:59:19;14.27;;;7.90;;
17965;SDS011;9108;53.204;10.424;2023-05-07T09:01:46;13.25;;;8.38;;
17965;SDS011;9108;53.204;10.424;2023-05-07T09:04:13;14.50;;;8.73;;
17965;SDS011;9108;53.204;10.424;2023-05-07T09:06:40;16.23;;;8.80;;
17965;SDS011;9108;53.204;10.424;2023-05-07T09:09:09;14.65;;;8.55;;
17965;SDS011;9108;53.204;10.424;2023-05-07T09:11:36;20.20;;;10.82;;
17965;SDS011;9108;53.204;10.424;2023-05-07T09:14:03;15.68;;;9.00;;
17965;SDS011;9108;53.204;10.424;2023-05-07T09:16:30;13.38;;;8.13;;
17965;SDS011;9108;53.204;10.424;2023-05-07T09:18:58;15.57;;;9.70;;
17965;SDS011;9108;53.204;10.424;2023-05-07T09:21:42;12.60;;;7.78;;
17965;SDS011;9108;53.204;10.424;2023-05-07T09:24:11;13.13;;;7.70;;
17965;SDS011;9108;53.204;10.424;2023-05-07T09:26:38;12.95;;;7.95;;
17965;SDS011;9108;53.204;10.424;2023-05-07T09:29:05;14.68;;;7.88;;
17965;SDS011;9108;53.204;10.424;2023-05-07T09:31:35;13.35;;;7.80;;
17965;SDS011;9108;53.204;10.424;2023-05-07T09:34:04;13.93;;;7.97;;
17965;SDS011;9108;53.204;10.424;2023-05-07T09:36:31;12.57;;;7.97;;
17965;SDS011;9108;53.204;10.424;2023-05-07T09:39:00;17.15;;;8.32;;
17965;SDS011;9108;53.204;10.424;2023-05-07T09:41:29;13.93;;;8.10;;
17965;SDS011;9108;53.204;10.424;2023-05-07T09:43:57;14.60;;;8.02;;
17965;SDS011;9108;53.204;10.424;2023-05-07T09:46:27;13.80;;;8.25;;
17965;SDS011;9108;53.204;10.424;2023-05-07T09:48:55;14.70;;;8.65;;
17965;SDS011;9108;53.204;10.424;2023-05-07T09:51:24;17.10;;;8.88;;
17965;SDS011;9108;53.204;10.424;2023-05-07T09:53:53;13.32;;;8.40;;
17965;SDS011;9108;53.204;10.424;2023-05-07T09:56:20;15.13;;;8.30;;
17965;SDS011;9108;53.204;10.424;2023-05-07T09:58:49;13.45;;;8.57;;
17965;SDS011;9108;53.204;10.424;2023-05-07T10:01:21;12.95;;;8.32;;
17965;SDS011;9108;53.204;10.424;2023-05-07T10:03:48;13.00;;;8.02;;
17965;SDS011;9108;53.204;10.424;2023-05-07T10:06:16;15.20;;;8.52;;
17965;SDS011;9108;53.204;10.424;2023-05-07T10:08:44;16.02;;;9.10;;
17965;SDS011;9108;53.204;10.424;2023-05-07T10:11:11;13.77;;;8.35;;
17965;SDS011;9108;53.204;10.424;2023-05-07T10:13:40;14.25;;;8.27;;
17965;SDS011;9108;53.204;10.424;2023-05-07T10:16:09;14.20;;;8.32;;
17965;SDS011;9108;53.204;10.424;2023-05-07T10:18:37;13.00;;;7.60;;
17965;SDS011;9108;53.204;10.424;2023-05-07T10:21:07;12.50;;;7.57;;
17965;SDS011;9108;53.204;10.424;2023-05-07T10:23:35;12.77;;;7.40;;
17965;SDS011;9108;53.204;10.424;2023-05-07T10:26:03;11.90;;;6.88;;
17965;SDS011;9108;53.204;10.424;2023-05-07T10:28:34;12.98;;;7.38;;
17965;SDS011;9108;53.204;10.424;2023-05-07T10:31:10;11.88;;;6.80;;
17965;SDS011;9108;53.204;10.424;2023-05-07T10:33:43;11.05;;;6.80;;
17965;SDS011;9108;53.204;10.424;2023-05-07T10:36:11;10.35;;;6.43;;
17965;SDS011;9108;53.204;10.424;2023-05-07T10:38:39;10.55;;;6.60;;
17965;SDS011;9108;53.204;10.424;2023-05-07T10:41:06;11.82;;;6.90;;
17965;SDS011;9108;53.204;10.424;2023-05-07T10:43:39;11.63;;;7.00;;
17965;SDS011;9108;53.204;10.424;2023-05-07T10:46:10;14.15;;;7.47;;
17965;SDS011;9108;53.204;10.424;2023-05-07T10:51:21;10.60;;;6.68;;
17965;SDS011;9108;53.204;10.424;2023-05-07T10:53:49;11.48;;;6.70;;
17965;SDS011;9108;53.204;10.424;2023-05-07T10:56:37;11.30;;;6.33;;
17965;SDS011;9108;53.204;10.424;2023-05-07T11:01:53;11.27;;;6.57;;
17965;SDS011;9108;53.204;10.424;2023-05-07T11:04:22;10.43;;;6.30;;
17965;SDS011;9108;53.204;10.424;2023-05-07T11:07:19;11.68;;;6.28;;
17965;SDS011;9108;53.204;10.424;2023-05-07T11:09:55;10.43;;;5.90;;
17965;SDS011;9108;53.204;10.424;2023-05-07T11:15:14;10.80;;;5.68;;
17965;SDS011;9108;53.204;10.424;2023-05-07T11:17:52;9.20;;;5.30;;
17965;SDS011;9108;53.204;10.424;2023-05-07T11:20:19;8.80;;;5.10;;
17965;SDS011;9108;53.204;10.424;2023-05-07T11:22:48;8.50;;;5.32;;
17965;SDS011;9108;53.204;10.424;2023-05-07T11:25:17;9.43;;;5.53;;
17965;SDS011;9108;53.204;10.424;2023-05-07T11:27:45;9.57;;;5.50;;
17965;SDS011;9108;53.204;10.424;2023-05-07T11:30:16;7.63;;;4.93;;
17965;SDS011;9108;53.204;10.424;2023-05-07T11:32:46;8.95;;;5.10;;
17965;SDS011;9108;53.204;10.424;2023-05-07T11:35:13;9.23;;;5.00;;
17965;SDS011;9108;53.204;10.424;2023-05-07T11:37:42;12.50;;;5.43;;
17965;SDS011;9108;53.204;10.424;2023-05-07T11:40:14;7.78;;;4.90;;
17965;SDS011;9108;53.204;10.424;2023-05-07T11:42:41;8.53;;;4.93;;
17965;SDS011;9108;53.204;10.424;2023-05-07T11:45:08;8.77;;;4.73;;
17965;SDS011;9108;53.204;10.424;2023-05-07T11:47:36;8.95;;;4.38;;
17965;SDS011;9108;53.204;10.424;2023-05-07T11:50:04;6.70;;;4.10;;
17965;SDS011;9108;53.204;10.424;2023-05-07T11:52:31;8.30;;;4.50;;
17965;SDS011;9108;53.204;10.424;2023-05-07T11:54:58;8.85;;;4.68;;
17965;SDS011;9108;53.204;10.424;2023-05-07T11:57:27;9.07;;;4.80;;
17965;SDS011;9108;53.204;10.424;2023-05-07T11:59:57;7.00;;;4.35;;
17965;SDS011;9108;53.204;10.424;2023-05-07T12:02:25;7.43;;;4.40;;
17965;SDS011;9108;53.204;10.424;2023-05-07T12:04:53;10.32;;;4.47;;
17965;SDS011;9108;53.204;10.424;2023-05-07T12:07:21;6.53;;;4.20;;
17965;SDS011;9108;53.204;10.424;2023-05-07T12:09:48;7.95;;;4.55;;
17965;SDS011;9108;53.204;10.424;2023-05-07T12:12:15;6.35;;;3.95;;
17965;SDS011;9108;53.204;10.424;2023-05-07T12:14:45;7.50;;;4.00;;
17965;SDS011;9108;53.204;10.424;2023-05-07T12:17:13;5.90;;;3.70;;
17965;SDS011;9108;53.204;10.424;2023-05-07T12:19:41;7.80;;;4.40;;
17965;SDS011;9108;53.204;10.424;2023-05-07T12:22:09;6.30;;;4.03;;
17965;SDS011;9108;53.204;10.424;2023-05-07T12:24:43;7.03;;;4.20;;
17965;SDS011;9108;53.204;10.424;2023-05-07T12:27:10;6.25;;;3.90;;
17965;SDS011;9108;53.204;10.424;2023-05-07T12:29:37;6.88;;;4.30;;
17965;SDS011;9108;53.204;10.424;2023-05-07T12:32:11;5.63;;;3.60;;
17965;SDS011;9108;53.204;10.424;2023-05-07T12:34:39;6.45;;;3.50;;
17965;SDS011;9108;53.204;10.424;2023-05-07T12:37:07;5.95;;;3.60;;
17965;SDS011;9108;53.204;10.424;2023-05-07T12:39:34;7.03;;;3.80;;
17965;SDS011;9108;53.204;10.424;2023-05-07T12:42:01;5.40;;;3.65;;
17965;SDS011;9108;53.204;10.424;2023-05-07T12:44:29;5.75;;;3.83;;
17965;SDS011;9108;53.204;10.424;2023-05-07T12:46:56;6.78;;;3.90;;
17965;SDS011;9108;53.204;10.424;2023-05-07T12:49:25;8.73;;;3.60;;
17965;SDS011;9108;53.204;10.424;2023-05-07T12:51:52;6.35;;;4.05;;
17965;SDS011;9108;53.204;10.424;2023-05-07T12:54:29;5.40;;;3.45;;
17965;SDS011;9108;53.204;10.424;2023-05-07T12:57:00;5.30;;;3.60;;
17965;SDS011;9108;53.204;10.424;2023-05-07T12:59:31;5.10;;;3.28;;
17965;SDS011;9108;53.204;10.424;2023-05-07T13:01:58;5.45;;;3.60;;
17965;SDS011;9108;53.204;10.424;2023-05-07T13:04:26;6.10;;;3.50;;
17965;SDS011;9108;53.204;10.424;2023-05-07T13:06:53;5.30;;;3.37;;
17965;SDS011;9108;53.204;10.424;2023-05-07T13:09:20;6.03;;;3.33;;
17965;SDS011;9108;53.204;10.424;2023-05-07T13:11:48;6.93;;;3.30;;
17965;SDS011;9108;53.204;10.424;2023-05-07T13:14:15;5.38;;;3.30;;
17965;SDS011;9108;53.204;10.424;2023-05-07T13:16:42;5.30;;;3.03;;
17965;SDS011;9108;53.204;10.424;2023-05-07T13:19:10;5.10;;;3.10;;
17965;SDS011;9108;53.204;10.424;2023-05-07T13:21:38;5.28;;;3.08;;
17965;SDS011;9108;53.204;10.424;2023-05-07T13:24:05;5.88;;;3.17;;
17965;SDS011;9108;53.204;10.424;2023-05-07T13:26:33;5.00;;;2.70;;
17965;SDS011;9108;53.204;10.424;2023-05-07T13:29:00;4.65;;;3.00;;
17965;SDS011;9108;53.204;10.424;2023-05-07T13:31:27;4.05;;;2.42;;
17965;SDS011;9108;53.204;10.424;2023-05-07T13:33:54;4.00;;;2.67;;
17965;SDS011;9108;53.204;10.424;2023-05-07T13:36:22;6.28;;;2.70;;
17965;SDS011;9108;53.204;10.424;2023-05-07T13:38:50;3.53;;;2.42;;
17965;SDS011;9108;53.204;10.424;2023-05-07T13:41:17;4.10;;;2.75;;
17965;SDS011;9108;53.204;10.424;2023-05-07T13:43:45;4.03;;;2.78;;
17965;SDS011;9108;53.204;10.424;2023-05-07T13:46:12;4.80;;;2.80;;
17965;SDS011;9108;53.204;10.424;2023-05-07T13:48:39;5.53;;;3.00;;
17965;SDS011;9108;53.204;10.424;2023-05-07T13:51:06;5.53;;;2.97;;
17965;SDS011;9108;53.204;10.424;2023-05-07T13:53:34;4.35;;;2.70;;
17965;SDS011;9108;53.204;10.424;2023-05-07T13:56:03;4.47;;;2.97;;
17965;SDS011;9108;53.204;10.424;2023-05-07T13:58:30;5.13;;;2.92;;
17965;SDS011;9108;53.204;10.424;2023-05-07T14:00:57;3.65;;;2.60;;
17965;SDS011;9108;53.204;10.424;2023-05-07T14:03:24;3.53;;;2.40;;
17965;SDS011;9108;53.204;10.424;2023-05-07T14:05:51;4.47;;;2.15;;
17965;SDS011;9108;53.204;10.424;2023-05-07T14:08:19;3.55;;;2.20;;
17965;SDS011;9108;53.204;10.424;2023-05-07T14:10:46;3.90;;;2.25;;
17965;SDS011;9108;53.204;10.424;2023-05-07T14:13:14;3.72;;;1.95;;
17965;SDS011;9108;53.204;10.424;2023-05-07T14:15:41;2.60;;;1.85;;
17965;SDS011;9108;53.204;10.424;2023-05-07T14:18:11;3.35;;;2.25;;
17965;SDS011;9108;53.204;10.424;2023-05-07T14:20:38;4.95;;;2.50;;
17965;SDS011;9108;53.204;10.424;2023-05-07T14:23:05;3.63;;;2.13;;
17965;SDS011;9108;53.204;10.424;2023-05-07T14:25:32;3.15;;;2.05;;
17965;SDS011;9108;53.204;10.424;2023-05-07T14:27:59;2.72;;;2.08;;
17965;SDS011;9108;53.204;10.424;2023-05-07T14:30:28;3.60;;;2.35;;
17965;SDS011;9108;53.204;10.424;2023-05-07T14:32:55;3.72;;;2.50;;
17965;SDS011;9108;53.204;10.424;2023-05-07T14:35:22;5.20;;;2.20;;
17965;SDS011;9108;53.204;10.424;2023-05-07T14:37:49;2.65;;;1.90;;
17965;SDS011;9108;53.204;10.424;2023-05-07T14:40:16;3.42;;;2.10;;
17965;SDS011;9108;53.204;10.424;2023-05-07T14:42:43;4.55;;;2.33;;
17965;SDS011;9108;53.204;10.424;2023-05-07T14:45:11;3.55;;;2.28;;
17965;SDS011;9108;53.204;10.424;2023-05-07T14:47:39;4.20;;;2.05;;
17965;SDS011;9108;53.204;10.424;2023-05-07T14:50:06;4.07;;;2.13;;
17965;SDS011;9108;53.204;10.424;2023-05-07T14:52:33;4.85;;;2.30;;
17965;SDS011;9108;53.204;10.424;2023-05-07T14:55:00;3.53;;;2.22;;
17965;SDS011;9108;53.204;10.424;2023-05-07T14:57:28;3.30;;;2.20;;
17965;SDS011;9108;53.204;10.424;2023-05-07T14:59:55;2.92;;;2.03;;
17965;SDS011;9108;53.204;10.424;2023-05-07T15:02:22;4.03;;;2.10;;
17965;SDS011;9108;53.204;10.424;2023-05-07T15:04:50;4.50;;;2.00;;
17965;SDS011;9108;53.204;10.424;2023-05-07T15:07:18;3.97;;;2.30;;
17965;SDS011;9108;53.204;10.424;2023-05-07T15:09:45;3.40;;;2.13;;